Time,TemperatureF,DewpointF,PressureIn,WindDirection,WindDirectionDegrees,WindSpeedMPH,WindSpeedGustMPH,Humidity,HourlyPrecipIn,Conditions,Clouds,dailyrainin,SoftwareType,DateUTC
2013-12-19 00:09:00,36.7,34.6,30.30,NW,314,0.0,1.0,92,0.00,,,0.00,Weather View 32 v70,2013-12-19 05:09:00,
2013-12-19 00:19:00,36.4,34.3,30.30,NW,314,0.0,1.0,92,0.00,,,0.00,Weather View 32 v70,2013-12-19 05:19:00,
2013-12-19 00:29:00,36.3,34.2,30.29,NW,314,0.0,1.0,92,0.00,,,0.00,Weather View 32 v70,2013-12-19 05:29:00,
2013-12-19 00:39:00,36.1,34.3,30.29,NW,314,1.0,1.0,93,0.00,,,0.00,Weather View 32 v70,2013-12-19 05:39:00,
2013-12-19 00:49:00,36.0,34.2,30.29,NW,314,0.0,2.0,93,0.00,,,0.00,Weather View 32 v70,2013-12-19 05:49:00,
2013-12-19 00:50:00,36.0,34.2,30.29,NW,314,0.0,2.0,93,0.00,,,0.00,Weather View 32 v70,2013-12-19 05:50:00,
2013-12-19 00:59:00,35.4,33.3,30.29,NW,314,1.0,2.0,92,0.00,,,0.00,Weather View 32 v70,2013-12-19 05:59:00,
2013-12-19 01:09:00,35.1,33.0,30.29,NW,314,0.0,2.0,92,0.00,,,0.00,Weather View 32 v70,2013-12-19 06:09:00,
2013-12-19 01:19:00,34.9,33.1,30.29,NW,314,1.0,2.0,93,0.00,,,0.00,Weather View 32 v70,2013-12-19 06:19:00,
2013-12-19 01:29:00,34.8,33.0,30.28,NW,314,0.0,2.0,93,0.00,,,0.00,Weather View 32 v70,2013-12-19 06:29:00,
2013-12-19 01:39:00,34.5,32.7,30.28,NW,314,1.0,2.0,93,0.00,,,0.00,Weather View 32 v70,2013-12-19 06:39:00,
2013-12-19 01:49:00,34.8,33.0,30.28,NW,314,0.0,2.0,93,0.00,,,0.00,Weather View 32 v70,2013-12-19 06:49:00,
2013-12-19 01:51:00,34.8,33.0,30.28,NW,314,0.0,2.0,93,0.00,,,0.00,Weather View 32 v70,2013-12-19 06:51:00,
2013-12-19 01:59:00,34.8,33.0,30.28,NW,314,0.0,2.0,93,0.00,,,0.00,Weather View 32 v70,2013-12-19 06:59:00,
2013-12-19 02:09:00,35.0,33.2,30.28,NW,314,0.0,2.0,93,0.00,,,0.00,Weather View 32 v70,2013-12-19 07:09:00,
2013-12-19 02:19:00,35.2,33.6,30.28,NW,314,0.0,2.0,94,0.00,,,0.00,Weather View 32 v70,2013-12-19 07:19:00,
2013-12-19 02:29:00,35.6,34.0,30.28,NW,314,0.0,2.0,94,0.00,,,0.00,Weather View 32 v70,2013-12-19 07:29:00,
2013-12-19 02:39:00,35.4,33.8,30.28,NW,314,0.0,2.0,94,0.00,,,0.00,Weather View 32 v70,2013-12-19 07:39:00,
2013-12-19 02:49:00,34.7,32.9,30.28,NW,314,0.0,2.0,93,0.00,,,0.00,Weather View 32 v70,2013-12-19 07:49:00,
2013-12-19 02:52:00,34.7,32.9,30.28,NW,314,0.0,2.0,93,0.00,,,0.00,Weather View 32 v70,2013-12-19 07:52:00,
2013-12-19 02:59:00,34.6,32.8,30.28,NW,314,0.0,2.0,93,0.00,,,0.00,Weather View 32 v70,2013-12-19 07:59:00,
2013-12-19 03:09:00,35.0,33.4,30.28,NW,314,0.0,1.0,94,0.00,,,0.00,Weather View 32 v70,2013-12-19 08:09:00,
2013-12-19 03:20:00,34.5,32.7,30.28,NW,314,0.0,0.0,93,0.00,,,0.00,Weather View 32 v70,2013-12-19 08:20:00,
2013-12-19 03:29:00,34.2,32.4,30.28,NW,314,0.0,0.0,93,0.00,,,0.00,Weather View 32 v70,2013-12-19 08:29:00,
2013-12-19 03:39:00,34.1,32.3,30.28,NW,314,0.0,0.0,93,0.00,,,0.00,Weather View 32 v70,2013-12-19 08:39:00,
2013-12-19 03:49:00,33.9,32.4,30.28,NW,314,0.0,0.0,94,0.00,,,0.00,Weather View 32 v70,2013-12-19 08:49:00,
2013-12-19 03:52:00,33.9,32.4,30.28,NW,314,0.0,0.0,94,0.00,,,0.00,Weather View 32 v70,2013-12-19 08:52:00,
2013-12-19 03:59:00,34.2,32.7,30.28,NW,314,0.0,0.0,94,0.00,,,0.00,Weather View 32 v70,2013-12-19 08:59:00,
2013-12-19 04:09:00,34.4,32.9,30.28,NW,314,0.0,0.0,94,0.00,,,0.00,Weather View 32 v70,2013-12-19 09:09:00,
2013-12-19 04:19:00,34.6,33.0,30.27,NW,314,0.0,0.0,94,0.00,,,0.00,Weather View 32 v70,2013-12-19 09:19:00,
2013-12-19 04:29:00,34.8,33.2,30.27,NW,314,0.0,0.0,94,0.00,,,0.00,Weather View 32 v70,2013-12-19 09:29:00,
2013-12-19 04:39:00,35.0,33.4,30.27,NW,314,0.0,0.0,94,0.00,,,0.00,Weather View 32 v70,2013-12-19 09:39:00,
2013-12-19 04:49:00,36.4,35.1,30.27,NW,313,1.0,2.0,95,0.00,,,0.00,Weather View 32 v70,2013-12-19 09:49:00,
2013-12-19 04:53:00,36.4,35.1,30.27,NW,313,1.0,2.0,95,0.00,,,0.00,Weather View 32 v70,2013-12-19 09:53:00,
2013-12-19 04:59:00,37.0,35.7,30.27,NW,313,0.0,3.0,95,0.00,,,0.00,Weather View 32 v70,2013-12-19 09:59:00,
2013-12-19 05:09:00,36.9,35.3,30.27,NW,313,1.0,3.0,94,0.00,,,0.00,Weather View 32 v70,2013-12-19 10:09:00,
2013-12-19 05:19:00,37.0,35.7,30.27,WNW,296,2.0,3.0,95,0.00,,,0.00,Weather View 32 v70,2013-12-19 10:19:00,
2013-12-19 05:29:00,37.0,35.7,30.27,WNW,296,0.0,3.0,95,0.00,,,0.00,Weather View 32 v70,2013-12-19 10:29:00,
2013-12-19 05:39:00,36.9,35.3,30.27,WNW,296,1.0,3.0,94,0.00,,,0.00,Weather View 32 v70,2013-12-19 10:39:00,
2013-12-19 05:49:00,37.1,35.5,30.27,WNW,296,1.0,3.0,94,0.00,,,0.00,Weather View 32 v70,2013-12-19 10:49:00,
2013-12-19 05:53:00,37.1,35.5,30.27,WNW,296,1.0,3.0,94,0.00,,,0.00,Weather View 32 v70,2013-12-19 10:53:00,
2013-12-19 05:59:00,36.9,35.3,30.27,WNW,296,1.0,3.0,94,0.00,,,0.00,Weather View 32 v70,2013-12-19 10:59:00,
2013-12-19 06:09:00,37.1,35.8,30.27,WNW,296,0.0,3.0,95,0.00,,,0.00,Weather View 32 v70,2013-12-19 11:09:00,
2013-12-19 06:19:00,36.8,35.2,30.28,WNW,296,0.0,3.0,94,0.00,,,0.00,Weather View 32 v70,2013-12-19 11:19:00,
2013-12-19 06:29:00,36.6,35.0,30.28,WNW,296,0.0,3.0,94,0.00,,,0.00,Weather View 32 v70,2013-12-19 11:29:00,
2013-12-19 06:39:00,36.2,34.6,30.28,WNW,296,0.0,2.0,94,0.00,,,0.00,Weather View 32 v70,2013-12-19 11:39:00,
2013-12-19 06:49:00,36.2,34.6,30.28,WNW,296,0.0,2.0,94,0.00,,,0.00,Weather View 32 v70,2013-12-19 11:49:00,
2013-12-19 06:54:00,36.2,34.6,30.28,WNW,296,0.0,2.0,94,0.00,,,0.00,Weather View 32 v70,2013-12-19 11:54:00,
2013-12-19 06:59:00,36.0,34.4,30.28,WNW,296,0.0,2.0,94,0.00,,,0.00,Weather View 32 v70,2013-12-19 11:59:00,
2013-12-19 07:09:00,36.3,35.0,30.28,WNW,296,0.0,2.0,95,0.00,,,0.00,Weather View 32 v70,2013-12-19 12:09:00,
2013-12-19 07:19:00,36.3,34.7,30.28,WNW,296,0.0,2.0,94,0.00,,,0.00,Weather View 32 v70,2013-12-19 12:19:00,
2013-12-19 07:29:00,36.5,35.2,30.28,WNW,296,0.0,2.0,95,0.00,,,0.00,Weather View 32 v70,2013-12-19 12:29:00,
2013-12-19 07:39:00,36.8,35.5,30.28,WNW,296,0.0,2.0,95,0.00,,,0.00,Weather View 32 v70,2013-12-19 12:39:00,
2013-12-19 07:49:00,37.5,36.2,30.28,WNW,296,0.0,2.0,95,0.00,,,0.00,Weather View 32 v70,2013-12-19 12:49:00,
2013-12-19 07:55:00,37.5,36.2,30.28,WNW,296,0.0,2.0,95,0.00,,,0.00,Weather View 32 v70,2013-12-19 12:55:00,
2013-12-19 07:59:00,38.3,37.0,30.28,WNW,296,2.0,2.0,95,0.00,,,0.00,Weather View 32 v70,2013-12-19 12:59:00,
2013-12-19 08:09:00,39.3,38.0,30.28,WNW,295,3.0,3.0,95,0.00,,,0.00,Weather View 32 v70,2013-12-19 13:09:00,
2013-12-19 08:19:00,40.6,39.3,30.29,WNW,292,2.0,4.0,95,0.00,,,0.00,Weather View 32 v70,2013-12-19 13:19:00,
2013-12-19 08:29:00,41.9,40.3,30.29,WNW,292,1.0,4.0,94,0.00,,,0.00,Weather View 32 v70,2013-12-19 13:29:00,
2013-12-19 08:39:00,43.3,41.7,30.28,WNW,292,1.0,4.0,94,0.00,,,0.00,Weather View 32 v70,2013-12-19 13:39:00,
2013-12-19 08:49:00,45.2,43.0,30.29,WNW,292,1.0,4.0,92,0.00,,,0.00,Weather View 32 v70,2013-12-19 13:49:00,
2013-12-19 08:55:00,45.2,43.0,30.29,WNW,292,1.0,4.0,92,0.00,,,0.00,Weather View 32 v70,2013-12-19 13:55:00,
2013-12-19 08:59:00,47.3,44.8,30.29,WNW,292,0.0,4.0,91,0.00,,,0.00,Weather View 32 v70,2013-12-19 13:59:00,
2013-12-19 09:09:00,49.5,46.4,30.29,WNW,289,1.0,4.0,89,0.00,,,0.00,Weather View 32 v70,2013-12-19 14:09:00,
2013-12-19 09:19:00,51.6,48.2,30.29,WNW,288,0.0,3.0,88,0.00,,,0.00,Weather View 32 v70,2013-12-19 14:19:00,
2013-12-19 09:29:00,54.0,49.6,30.30,NNE,13,1.0,5.0,85,0.00,,,0.00,Weather View 32 v70,2013-12-19 14:29:00,
2013-12-19 09:39:00,55.9,50.5,30.30,NNE,14,0.0,5.0,82,0.00,,,0.00,Weather View 32 v70,2013-12-19 14:39:00,
2013-12-19 09:49:00,57.2,51.1,30.31,North,5,4.0,5.0,80,0.00,,,0.00,Weather View 32 v70,2013-12-19 14:49:00,
2013-12-19 09:57:00,57.2,51.1,30.31,North,5,4.0,5.0,80,0.00,,,0.00,Weather View 32 v70,2013-12-19 14:57:00,
2013-12-19 09:59:00,58.6,52.4,30.31,NE,50,0.0,7.0,80,0.00,,,0.00,Weather View 32 v70,2013-12-19 14:59:00,
2013-12-19 10:09:00,59.0,52.1,30.31,North,5,4.0,7.0,78,0.00,,,0.00,Weather View 32 v70,2013-12-19 15:09:00,
2013-12-19 10:19:00,59.9,53.0,30.30,NNE,16,6.0,9.0,78,0.00,,,0.00,Weather View 32 v70,2013-12-19 15:19:00,
2013-12-19 10:29:00,60.3,53.0,30.31,NNE,32,4.0,9.0,77,0.00,,,0.00,Weather View 32 v70,2013-12-19 15:29:00,
2013-12-19 10:39:00,60.5,53.6,30.30,NE,46,2.0,9.0,78,0.00,,,0.00,Weather View 32 v70,2013-12-19 15:39:00,
2013-12-19 10:49:00,61.4,54.1,30.30,NE,53,0.0,9.0,77,0.00,,,0.00,Weather View 32 v70,2013-12-19 15:49:00,
2013-12-19 10:57:00,61.4,54.1,30.30,NE,53,0.0,9.0,77,0.00,,,0.00,Weather View 32 v70,2013-12-19 15:57:00,
2013-12-19 10:59:00,62.6,55.3,30.30,ENE,63,2.0,9.0,77,0.00,,,0.00,Weather View 32 v70,2013-12-19 15:59:00,
2013-12-19 11:09:00,63.0,55.3,30.30,NNE,33,2.0,9.0,76,0.00,,,0.00,Weather View 32 v70,2013-12-19 16:09:00,
2013-12-19 11:19:00,63.7,56.0,30.29,NNE,21,5.0,9.0,76,0.00,,,0.00,Weather View 32 v70,2013-12-19 16:19:00,
2013-12-19 11:29:00,64.1,56.0,30.29,NE,51,3.0,7.0,75,0.00,,,0.00,Weather View 32 v70,2013-12-19 16:29:00,
2013-12-19 11:39:00,64.8,56.3,30.28,ENE,57,0.0,7.0,74,0.00,,,0.00,Weather View 32 v70,2013-12-19 16:39:00,
2013-12-19 11:49:00,65.6,57.1,30.28,ENE,71,1.0,7.0,74,0.00,,,0.00,Weather View 32 v70,2013-12-19 16:49:00,
2013-12-19 11:58:00,65.6,57.1,30.28,ENE,71,1.0,7.0,74,0.00,,,0.00,Weather View 32 v70,2013-12-19 16:58:00,
2013-12-19 11:59:00,66.0,57.1,30.28,SSE,155,0.0,7.0,73,0.00,,,0.00,Weather View 32 v70,2013-12-19 16:59:00,
2013-12-19 12:09:00,66.1,57.2,30.27,SSE,155,0.0,6.0,73,0.00,,,0.00,Weather View 32 v70,2013-12-19 17:09:00,
2013-12-19 12:19:00,66.8,57.5,30.26,SSE,155,0.0,6.0,72,0.00,,,0.00,Weather View 32 v70,2013-12-19 17:19:00,
2013-12-19 12:29:00,67.4,57.6,30.26,SSE,155,0.0,5.0,71,0.00,,,0.00,Weather View 32 v70,2013-12-19 17:29:00,
2013-12-19 12:39:00,68.2,58.8,30.25,SSE,153,5.0,7.0,72,0.00,,,0.00,Weather View 32 v70,2013-12-19 17:39:00,
2013-12-19 12:49:00,68.2,58.4,30.24,ESE,110,0.0,7.0,71,0.00,,,0.00,Weather View 32 v70,2013-12-19 17:49:00,
2013-12-19 12:58:00,68.2,58.4,30.24,ESE,110,0.0,7.0,71,0.00,,,0.00,Weather View 32 v70,2013-12-19 17:58:00,
2013-12-19 12:59:00,68.3,59.3,30.24,SE,128,2.0,7.0,73,0.00,,,0.00,Weather View 32 v70,2013-12-19 17:59:00,
2013-12-19 13:09:00,68.7,59.7,30.24,ESE,105,2.0,7.0,73,0.00,,,0.00,Weather View 32 v70,2013-12-19 18:09:00,
2013-12-19 13:19:00,68.9,58.7,30.23,SE,124,1.0,7.0,70,0.00,,,0.00,Weather View 32 v70,2013-12-19 18:19:00,
2013-12-19 13:29:00,68.9,59.1,30.23,ENE,74,3.0,7.0,71,0.00,,,0.00,Weather View 32 v70,2013-12-19 18:29:00,
2013-12-19 13:39:00,69.0,57.6,30.22,SE,132,2.0,6.0,67,0.00,,,0.00,Weather View 32 v70,2013-12-19 18:39:00,
2013-12-19 13:49:00,69.0,58.4,30.22,ESE,116,1.0,8.0,69,0.00,,,0.00,Weather View 32 v70,2013-12-19 18:49:00,
2013-12-19 13:59:00,68.8,56.9,30.22,SE,142,2.0,8.0,66,0.00,,,0.00,Weather View 32 v70,2013-12-19 18:59:00,
2013-12-19 14:09:00,68.5,59.1,30.21,ESE,108,3.0,8.0,72,0.00,,,0.00,Weather View 32 v70,2013-12-19 19:09:00,
2013-12-19 14:19:00,68.7,56.4,30.21,SE,144,5.0,8.0,65,0.00,,,0.00,Weather View 32 v70,2013-12-19 19:19:00,
2013-12-19 14:29:00,68.9,56.6,30.21,ENE,67,3.0,8.0,65,0.00,,,0.00,Weather View 32 v70,2013-12-19 19:29:00,
2013-12-19 14:39:00,69.1,57.2,30.20,SSE,161,3.0,8.0,66,0.00,,,0.00,Weather View 32 v70,2013-12-19 19:39:00,
2013-12-19 14:49:00,68.7,57.3,30.20,South,175,2.0,7.0,67,0.00,,,0.00,Weather View 32 v70,2013-12-19 19:49:00,
2013-12-19 15:00:00,69.0,58.0,30.20,SSE,147,6.0,7.0,68,0.00,,,0.00,Weather View 32 v70,2013-12-19 20:00:00,
2013-12-19 15:09:00,69.1,58.5,30.20,SSE,155,2.0,7.0,69,0.00,,,0.00,Weather View 32 v70,2013-12-19 20:09:00,
2013-12-19 15:19:00,70.0,57.7,30.20,SE,146,1.0,7.0,65,0.00,,,0.00,Weather View 32 v70,2013-12-19 20:19:00,
2013-12-19 15:29:00,69.7,57.4,30.19,SSE,148,1.0,7.0,65,0.00,,,0.00,Weather View 32 v70,2013-12-19 20:29:00,
2013-12-19 15:39:00,69.9,58.8,30.19,SE,136,0.0,7.0,68,0.00,,,0.00,Weather View 32 v70,2013-12-19 20:39:00,
2013-12-19 15:49:00,70.1,59.0,30.19,South,169,3.0,7.0,68,0.00,,,0.00,Weather View 32 v70,2013-12-19 20:49:00,
2013-12-19 15:59:00,69.5,59.7,30.19,SSE,158,0.0,7.0,71,0.00,,,0.00,Weather View 32 v70,2013-12-19 20:59:00,
2013-12-19 16:00:00,69.5,59.7,30.19,SSE,158,0.0,7.0,71,0.00,,,0.00,Weather View 32 v70,2013-12-19 21:00:00,
2013-12-19 16:09:00,70.4,58.0,30.20,SSE,155,0.0,4.0,65,0.00,,,0.00,Weather View 32 v70,2013-12-19 21:09:00,
2013-12-19 16:19:00,69.5,59.3,30.19,ESE,120,0.0,4.0,70,0.00,,,0.00,Weather View 32 v70,2013-12-19 21:19:00,
2013-12-19 16:29:00,69.2,59.0,30.20,ESE,113,0.0,4.0,70,0.00,,,0.00,Weather View 32 v70,2013-12-19 21:29:00,
2013-12-19 16:39:00,68.4,59.0,30.20,ESE,113,0.0,4.0,72,0.00,,,0.00,Weather View 32 v70,2013-12-19 21:39:00,
2013-12-19 16:49:00,67.4,58.4,30.20,ESE,113,0.0,4.0,73,0.00,,,0.00,Weather View 32 v70,2013-12-19 21:49:00,
2013-12-19 16:59:00,66.2,58.0,30.21,ESE,113,0.0,4.0,75,0.00,,,0.00,Weather View 32 v70,2013-12-19 21:59:00,
2013-12-19 17:01:00,66.2,58.0,30.21,ESE,113,0.0,4.0,75,0.00,,,0.00,Weather View 32 v70,2013-12-19 22:01:00,
2013-12-19 17:09:00,65.1,58.0,30.21,ESE,113,0.0,4.0,78,0.00,,,0.00,Weather View 32 v70,2013-12-19 22:09:00,
2013-12-19 17:19:00,64.3,58.3,30.21,ESE,113,0.0,1.0,81,0.00,,,0.00,Weather View 32 v70,2013-12-19 22:19:00,
2013-12-19 17:29:00,66.2,58.4,30.21,NNE,32,0.0,3.0,76,0.00,,,0.00,Weather View 32 v70,2013-12-19 22:29:00,
2013-12-19 17:39:00,65.8,58.0,30.20,NNE,32,0.0,3.0,76,0.00,,,0.00,Weather View 32 v70,2013-12-19 22:39:00,
2013-12-19 17:49:00,64.4,58.1,30.20,NNE,32,0.0,3.0,80,0.00,,,0.00,Weather View 32 v70,2013-12-19 22:49:00,
2013-12-19 17:59:00,61.8,56.2,30.21,NNE,32,0.0,3.0,82,0.00,,,0.00,Weather View 32 v70,2013-12-19 22:59:00,
2013-12-19 18:01:00,61.8,56.2,30.21,NNE,32,0.0,3.0,82,0.00,,,0.00,Weather View 32 v70,2013-12-19 23:01:00,
2013-12-19 18:09:00,60.4,56.2,30.21,NNE,30,0.0,3.0,86,0.00,,,0.00,Weather View 32 v70,2013-12-19 23:09:00,
2013-12-19 18:19:00,59.6,55.7,30.21,NNE,30,0.0,3.0,87,0.00,,,0.00,Weather View 32 v70,2013-12-19 23:19:00,
2013-12-19 18:29:00,58.8,55.6,30.21,NNE,30,0.0,2.0,89,0.00,,,0.00,Weather View 32 v70,2013-12-19 23:29:00,
2013-12-19 18:39:00,57.8,54.9,30.21,NNE,30,0.0,2.0,90,0.00,,,0.00,Weather View 32 v70,2013-12-19 23:39:00,
2013-12-19 18:49:00,57.7,55.1,30.21,North,350,0.0,2.0,91,0.00,,,0.00,Weather View 32 v70,2013-12-19 23:49:00,
2013-12-19 18:59:00,56.6,54.0,30.22,NW,306,1.0,2.0,91,0.00,,,0.00,Weather View 32 v70,2013-12-19 23:59:00,
2013-12-19 19:02:00,56.6,54.0,30.22,NW,306,1.0,2.0,91,0.00,,,0.00,Weather View 32 v70,2013-12-20 00:02:00,
2013-12-19 19:09:00,57.5,54.9,30.22,NW,306,0.0,2.0,91,0.00,,,0.00,Weather View 32 v70,2013-12-20 00:09:00,
2013-12-19 19:19:00,57.3,55.0,30.22,NW,306,0.0,2.0,92,0.00,,,0.00,Weather View 32 v70,2013-12-20 00:19:00,
2013-12-19 19:29:00,57.0,54.7,30.22,NW,306,0.0,2.0,92,0.00,,,0.00,Weather View 32 v70,2013-12-20 00:29:00,
2013-12-19 19:39:00,56.7,54.4,30.21,NW,306,0.0,2.0,92,0.00,,,0.00,Weather View 32 v70,2013-12-20 00:39:00,
2013-12-19 19:49:00,56.3,54.3,30.22,NW,306,0.0,2.0,93,0.00,,,0.00,Weather View 32 v70,2013-12-20 00:49:00,
2013-12-19 19:59:00,56.4,54.4,30.22,NW,306,0.0,1.0,93,0.00,,,0.00,Weather View 32 v70,2013-12-20 00:59:00,
2013-12-19 20:02:00,56.4,54.4,30.22,NW,306,0.0,1.0,93,0.00,,,0.00,Weather View 32 v70,2013-12-20 01:02:00,
2013-12-19 20:09:00,56.5,54.5,30.22,NW,306,0.0,0.0,93,0.00,,,0.00,Weather View 32 v70,2013-12-20 01:09:00,
2013-12-19 20:19:00,55.9,53.9,30.22,NW,306,0.0,0.0,93,0.00,,,0.00,Weather View 32 v70,2013-12-20 01:19:00,
2013-12-19 20:29:00,55.5,53.8,30.23,NW,306,0.0,0.0,94,0.00,,,0.00,Weather View 32 v70,2013-12-20 01:29:00,
2013-12-19 20:39:00,56.0,54.3,30.23,NW,306,0.0,0.0,94,0.00,,,0.00,Weather View 32 v70,2013-12-20 01:39:00,
2013-12-19 20:49:00,54.9,53.2,30.24,NW,306,0.0,1.0,94,0.00,,,0.00,Weather View 32 v70,2013-12-20 01:49:00,
2013-12-19 20:59:00,53.9,52.2,30.24,NW,306,0.0,1.0,94,0.00,,,0.00,Weather View 32 v70,2013-12-20 01:59:00,
2013-12-19 21:03:00,53.9,52.2,30.24,NW,306,0.0,1.0,94,0.00,,,0.00,Weather View 32 v70,2013-12-20 02:03:00,
2013-12-19 21:09:00,53.4,51.7,30.23,NW,306,0.0,1.0,94,0.00,,,0.00,Weather View 32 v70,2013-12-20 02:09:00,
2013-12-19 21:19:00,53.2,51.5,30.23,NW,306,0.0,1.0,94,0.00,,,0.00,Weather View 32 v70,2013-12-20 02:19:00,
2013-12-19 21:29:00,53.2,51.8,30.23,NW,306,0.0,1.0,95,0.00,,,0.00,Weather View 32 v70,2013-12-20 02:29:00,
2013-12-19 21:39:00,52.7,51.0,30.23,NW,306,0.0,1.0,94,0.00,,,0.00,Weather View 32 v70,2013-12-20 02:39:00,
2013-12-19 21:49:00,52.6,51.2,30.23,NW,306,0.0,0.0,95,0.00,,,0.00,Weather View 32 v70,2013-12-20 02:49:00,
2013-12-19 21:59:00,52.0,50.3,30.23,NW,306,0.0,0.0,94,0.00,,,0.00,Weather View 32 v70,2013-12-20 02:59:00,
2013-12-19 22:03:00,52.0,50.3,30.23,NW,306,0.0,0.0,94,0.00,,,0.00,Weather View 32 v70,2013-12-20 03:03:00,
2013-12-19 22:09:00,51.4,49.7,30.23,NW,306,0.0,0.0,94,0.00,,,0.00,Weather View 32 v70,2013-12-20 03:09:00,
2013-12-19 22:19:00,51.1,49.4,30.23,NW,306,0.0,0.0,94,0.00,,,0.00,Weather View 32 v70,2013-12-20 03:19:00,
2013-12-19 22:29:00,51.0,49.3,30.23,NW,306,0.0,0.0,94,0.00,,,0.00,Weather View 32 v70,2013-12-20 03:29:00,
2013-12-19 22:39:00,50.8,49.4,30.22,NW,306,0.0,0.0,95,0.00,,,0.00,Weather View 32 v70,2013-12-20 03:39:00,
2013-12-19 22:49:00,51.0,49.6,30.22,NW,306,0.0,0.0,95,0.00,,,0.00,Weather View 32 v70,2013-12-20 03:49:00,
2013-12-19 22:59:00,51.1,49.7,30.22,NW,306,0.0,0.0,95,0.00,,,0.00,Weather View 32 v70,2013-12-20 03:59:00,
2013-12-19 23:04:00,51.1,49.7,30.22,NW,306,0.0,0.0,95,0.00,,,0.00,Weather View 32 v70,2013-12-20 04:04:00,
2013-12-19 23:09:00,50.7,49.3,30.22,NW,306,0.0,0.0,95,0.00,,,0.00,Weather View 32 v70,2013-12-20 04:09:00,
2013-12-19 23:19:00,50.2,48.8,30.22,NW,306,0.0,0.0,95,0.00,,,0.00,Weather View 32 v70,2013-12-20 04:19:00,
2013-12-19 23:29:00,50.3,48.9,30.22,NW,306,0.0,0.0,95,0.00,,,0.00,Weather View 32 v70,2013-12-20 04:29:00,
2013-12-19 23:39:00,50.3,48.9,30.22,NW,306,0.0,0.0,95,0.00,,,0.00,Weather View 32 v70,2013-12-20 04:39:00,
2013-12-19 23:49:00,50.8,49.4,30.22,NW,306,0.0,0.0,95,0.00,,,0.00,Weather View 32 v70,2013-12-20 04:49:00,
2013-12-19 23:59:00,50.1,48.7,30.21,NW,306,0.0,0.0,95,0.00,,,0.00,Weather View 32 v70,2013-12-20 04:59:00,